sensor_id;sensor_type;location;lat;lon;timestamp;pressure;altitude;pressure_sealevel;temperature;humidity
18858;BME280;9558;50.178;8.370;2023-07-22T00:02:19;98159.25;;;12.52;100.00
18858;BME280;9558;50.178;8.370;2023-07-22T00:05:09;98160.25;;;12.51;100.00
18858;BME280;9558;50.178;8.370;2023-07-22T00:07:56;98165.81;;;12.48;100.00
18858;BME280;9558;50.178;8.370;2023-07-22T00:10:43;98157.78;;;12.43;100.00
18858;BME280;9558;50.178;8.370;2023-07-22T00:13:30;98162.75;;;12.38;100.00
18858;BME280;9558;50.178;8.370;2023-07-22T00:16:17;98155.69;;;12.32;100.00
18858;BME280;9558;50.178;8.370;2023-07-22T00:19:04;98155.47;;;12.26;100.00
18858;BME280;9558;50.178;8.370;2023-07-22T00:21:54;98156.81;;;12.22;100.00
18858;BME280;9558;50.178;8.370;2023-07-22T00:24:40;98157.56;;;12.16;100.00
18858;BME280;9558;50.178;8.370;2023-07-22T00:27:27;98155.50;;;12.12;100.00
18858;BME280;9558;50.178;8.370;2023-07-22T00:30:14;98153.47;;;12.07;100.00
18858;BME280;9558;50.178;8.370;2023-07-22T00:33:01;98159.03;;;12.04;100.00
18858;BME280;9558;50.178;8.370;2023-07-22T00:35:48;98158.44;;;12.02;100.00
18858;BME280;9558;50.178;8.370;2023-07-22T00:38:37;98158.16;;;11.97;100.00
18858;BME280;9558;50.178;8.370;2023-07-22T00:41:25;98159.34;;;11.94;100.00
18858;BME280;9558;50.178;8.370;2023-07-22T00:44:12;98156.91;;;11.92;100.00
18858;BME280;9558;50.178;8.370;2023-07-22T00:46:59;98156.09;;;11.92;100.00
18858;BME280;9558;50.178;8.370;2023-07-22T00:49:47;98152.69;;;11.91;100.00
18858;BME280;9558;50.178;8.370;2023-07-22T00:52:35;98157.28;;;11.89;100.00
18858;BME280;9558;50.178;8.370;2023-07-22T00:55:23;98152.44;;;11.86;100.00
18858;BME280;9558;50.178;8.370;2023-07-22T00:58:10;98146.81;;;11.83;100.00
18858;BME280;9558;50.178;8.370;2023-07-22T01:00:57;98154.16;;;11.79;100.00
18858;BME280;9558;50.178;8.370;2023-07-22T01:03:43;98151.94;;;11.76;100.00
18858;BME280;9558;50.178;8.370;2023-07-22T01:06:31;98150.72;;;11.72;100.00
18858;BME280;9558;50.178;8.370;2023-07-22T01:09:19;98149.28;;;11.69;100.00
18858;BME280;9558;50.178;8.370;2023-07-22T01:12:07;98147.06;;;11.66;100.00
18858;BME280;9558;50.178;8.370;2023-07-22T01:14:55;98144.00;;;11.63;100.00
18858;BME280;9558;50.178;8.370;2023-07-22T01:17:41;98150.53;;;11.58;100.00
18858;BME280;9558;50.178;8.370;2023-07-22T01:20:30;98150.47;;;11.52;100.00
18858;BME280;9558;50.178;8.370;2023-07-22T01:23:18;98152.81;;;11.47;100.00
18858;BME280;9558;50.178;8.370;2023-07-22T01:26:05;98156.56;;;11.44;100.00
18858;BME280;9558;50.178;8.370;2023-07-22T01:29:01;98161.50;;;11.39;100.00
18858;BME280;9558;50.178;8.370;2023-07-22T01:31:50;98155.47;;;11.38;100.00
18858;BME280;9558;50.178;8.370;2023-07-22T01:34:37;98153.06;;;11.37;100.00
18858;BME280;9558;50.178;8.370;2023-07-22T01:37:25;98148.88;;;11.36;100.00
18858;BME280;9558;50.178;8.370;2023-07-22T01:40:13;98159.00;;;11.31;100.00
18858;BME280;9558;50.178;8.370;2023-07-22T01:43:00;98147.81;;;11.30;100.00
18858;BME280;9558;50.178;8.370;2023-07-22T01:45:47;98145.22;;;11.30;100.00
18858;BME280;9558;50.178;8.370;2023-07-22T01:48:34;98147.38;;;11.27;100.00
18858;BME280;9558;50.178;8.370;2023-07-22T01:51:20;98143.53;;;11.22;100.00
18858;BME280;9558;50.178;8.370;2023-07-22T01:54:07;98139.69;;;11.18;100.00
18858;BME280;9558;50.178;8.370;2023-07-22T01:56:56;98145.59;;;11.12;100.00
18858;BME280;9558;50.178;8.370;2023-07-22T01:59:42;98141.16;;;11.06;100.00
18858;BME280;9558;50.178;8.370;2023-07-22T02:02:29;98133.09;;;11.01;100.00
18858;BME280;9558;50.178;8.370;2023-07-22T02:05:16;98124.06;;;10.97;100.00
18858;BME280;9558;50.178;8.370;2023-07-22T02:08:03;98133.81;;;10.95;100.00
18858;BME280;9558;50.178;8.370;2023-07-22T02:10:50;98127.38;;;10.91;100.00
18858;BME280;9558;50.178;8.370;2023-07-22T02:13:38;98131.31;;;10.86;100.00
18858;BME280;9558;50.178;8.370;2023-07-22T02:16:25;98132.47;;;10.84;100.00
18858;BME280;9558;50.178;8.370;2023-07-22T02:19:12;98133.97;;;10.78;100.00
18858;BME280;9558;50.178;8.370;2023-07-22T02:21:59;98132.72;;;10.74;100.00
18858;BME280;9558;50.178;8.370;2023-07-22T02:24:45;98135.03;;;10.69;100.00
18858;BME280;9558;50.178;8.370;2023-07-22T02:27:32;98133.78;;;10.65;100.00
18858;BME280;9558;50.178;8.370;2023-07-22T02:30:21;98136.72;;;10.62;100.00
18858;BME280;9558;50.178;8.370;2023-07-22T02:33:08;98131.88;;;10.59;100.00
18858;BME280;9558;50.178;8.370;2023-07-22T02:35:55;98129.03;;;10.53;100.00
18858;BME280;9558;50.178;8.370;2023-07-22T02:38:41;98136.31;;;10.50;100.00
18858;BME280;9558;50.178;8.370;2023-07-22T02:41:28;98132.66;;;10.44;100.00
18858;BME280;9558;50.178;8.370;2023-07-22T02:44:15;98134.81;;;10.41;100.00
18858;BME280;9558;50.178;8.370;2023-07-22T02:47:03;98142.91;;;10.37;100.00
18858;BME280;9558;50.178;8.370;2023-07-22T02:49:51;98149.25;;;10.35;100.00
18858;BME280;9558;50.178;8.370;2023-07-22T02:52:37;98150.03;;;10.35;100.00
18858;BME280;9558;50.178;8.370;2023-07-22T02:55:24;98146.66;;;10.35;100.00
18858;BME280;9558;50.178;8.370;2023-07-22T02:58:11;98140.81;;;10.33;100.00
18858;BME280;9558;50.178;8.370;2023-07-22T03:00:58;98150.34;;;10.32;100.00
18858;BME280;9558;50.178;8.370;2023-07-22T03:03:46;98162.03;;;10.28;100.00
18858;BME280;9558;50.178;8.370;2023-07-22T03:06:33;98149.25;;;10.27;100.00
18858;BME280;9558;50.178;8.370;2023-07-22T03:09:20;98159.97;;;10.24;100.00
18858;BME280;9558;50.178;8.370;2023-07-22T03:12:08;98156.09;;;10.19;100.00
18858;BME280;9558;50.178;8.370;2023-07-22T03:14:55;98153.22;;;10.14;100.00
18858;BME280;9558;50.178;8.370;2023-07-22T03:17:42;98155.19;;;10.12;100.00
18858;BME280;9558;50.178;8.370;2023-07-22T03:20:31;98157.78;;;10.12;100.00
18858;BME280;9558;50.178;8.370;2023-07-22T03:23:17;98160.72;;;10.09;100.00
18858;BME280;9558;50.178;8.370;2023-07-22T03:26:05;98163.81;;;10.05;100.00
18858;BME280;9558;50.178;8.370;2023-07-22T03:28:51;98165.47;;;9.97;100.00
18858;BME280;9558;50.178;8.370;2023-07-22T03:31:38;98169.81;;;9.97;100.00
18858;BME280;9558;50.178;8.370;2023-07-22T03:34:26;98170.34;;;9.92;100.00
18858;BME280;9558;50.178;8.370;2023-07-22T03:37:14;98175.69;;;9.91;100.00
18858;BME280;9558;50.178;8.370;2023-07-22T03:40:01;98176.31;;;9.93;100.00
18858;BME280;9558;50.178;8.370;2023-07-22T03:42:50;98163.38;;;9.93;100.00
18858;BME280;9558;50.178;8.370;2023-07-22T03:45:36;98174.03;;;9.98;100.00
18858;BME280;9558;50.178;8.370;2023-07-22T03:48:24;98160.59;;;10.02;100.00
18858;BME280;9558;50.178;8.370;2023-07-22T03:51:11;98167.72;;;10.00;100.00
18858;BME280;9558;50.178;8.370;2023-07-22T03:53:59;98160.13;;;9.99;100.00
18858;BME280;9558;50.178;8.370;2023-07-22T03:56:46;98169.66;;;9.98;100.00
18858;BME280;9558;50.178;8.370;2023-07-22T03:59:33;98170.78;;;9.96;100.00
18858;BME280;9558;50.178;8.370;2023-07-22T04:02:20;98168.06;;;9.97;100.00
18858;BME280;9558;50.178;8.370;2023-07-22T04:05:08;98165.31;;;9.99;100.00
18858;BME280;9558;50.178;8.370;2023-07-22T04:07:55;98161.72;;;10.00;100.00
18858;BME280;9558;50.178;8.370;2023-07-22T04:10:51;98173.06;;;9.99;100.00
18858;BME280;9558;50.178;8.370;2023-07-22T04:13:37;98170.78;;;9.96;100.00
18858;BME280;9558;50.178;8.370;2023-07-22T04:16:24;98162.06;;;9.97;100.00
18858;BME280;9558;50.178;8.370;2023-07-22T04:19:11;98156.56;;;10.00;100.00
18858;BME280;9558;50.178;8.370;2023-07-22T04:21:58;98161.28;;;9.96;100.00
18858;BME280;9558;50.178;8.370;2023-07-22T04:24:49;98155.94;;;9.98;100.00
18858;BME280;9558;50.178;8.370;2023-07-22T04:27:37;98152.38;;;9.99;100.00
18858;BME280;9558;50.178;8.370;2023-07-22T04:30:24;98156.56;;;10.00;100.00
18858;BME280;9558;50.178;8.370;2023-07-22T04:33:11;98150.59;;;9.99;100.00
18858;BME280;9558;50.178;8.370;2023-07-22T04:35:59;98152.22;;;10.00;100.00
18858;BME280;9558;50.178;8.370;2023-07-22T04:38:46;98154.63;;;10.02;100.00
18858;BME280;9558;50.178;8.370;2023-07-22T04:41:33;98161.06;;;10.06;100.00
18858;BME280;9558;50.178;8.370;2023-07-22T04:44:21;98150.38;;;10.09;100.00
18858;BME280;9558;50.178;8.370;2023-07-22T04:47:09;98158.41;;;10.14;100.00
18858;BME280;9558;50.178;8.370;2023-07-22T04:49:56;98159.03;;;10.16;100.00
18858;BME280;9558;50.178;8.370;2023-07-22T04:52:44;98164.47;;;10.21;100.00
18858;BME280;9558;50.178;8.370;2023-07-22T04:55:31;98159.78;;;10.25;100.00
18858;BME280;9558;50.178;8.370;2023-07-22T04:58:18;98166.06;;;10.31;100.00
18858;BME280;9558;50.178;8.370;2023-07-22T05:01:07;98159.22;;;10.38;100.00
18858;BME280;9558;50.178;8.370;2023-07-22T05:03:55;98160.50;;;10.42;100.00
18858;BME280;9558;50.178;8.370;2023-07-22T05:06:43;98157.72;;;10.44;100.00
18858;BME280;9558;50.178;8.370;2023-07-22T05:09:30;98164.16;;;10.48;100.00
18858;BME280;9558;50.178;8.370;2023-07-22T05:12:17;98166.41;;;10.51;100.00
18858;BME280;9558;50.178;8.370;2023-07-22T05:15:04;98163.13;;;10.57;100.00
18858;BME280;9558;50.178;8.370;2023-07-22T05:17:52;98162.44;;;10.63;100.00
18858;BME280;9558;50.178;8.370;2023-07-22T05:20:39;98162.88;;;10.67;100.00
18858;BME280;9558;50.178;8.370;2023-07-22T05:23:26;98166.53;;;10.72;100.00
18858;BME280;9558;50.178;8.370;2023-07-22T05:26:13;98167.63;;;10.78;100.00
18858;BME280;9558;50.178;8.370;2023-07-22T05:29:00;98178.09;;;10.85;100.00
18858;BME280;9558;50.178;8.370;2023-07-22T05:31:47;98172.00;;;10.93;100.00
18858;BME280;9558;50.178;8.370;2023-07-22T05:34:35;98179.34;;;11.04;100.00
18858;BME280;9558;50.178;8.370;2023-07-22T05:37:22;98172.47;;;11.11;100.00
18858;BME280;9558;50.178;8.370;2023-07-22T05:40:09;98176.94;;;11.17;100.00
18858;BME280;9558;50.178;8.370;2023-07-22T05:42:56;98182.84;;;11.26;100.00
18858;BME280;9558;50.178;8.370;2023-07-22T05:45:43;98184.16;;;11.37;100.00
18858;BME280;9558;50.178;8.370;2023-07-22T05:48:29;98180.31;;;11.48;100.00
18858;BME280;9558;50.178;8.370;2023-07-22T05:51:18;98182.66;;;11.57;100.00
18858;BME280;9558;50.178;8.370;2023-07-22T05:54:05;98174.75;;;11.66;100.00
18858;BME280;9558;50.178;8.370;2023-07-22T05:56:52;98175.91;;;11.78;100.00
18858;BME280;9558;50.178;8.370;2023-07-22T05:59:40;98178.38;;;11.86;100.00
18858;BME280;9558;50.178;8.370;2023-07-22T06:02:27;98173.25;;;11.93;100.00
18858;BME280;9558;50.178;8.370;2023-07-22T06:05:13;98179.78;;;12.04;100.00
18858;BME280;9558;50.178;8.370;2023-07-22T06:08:02;98187.09;;;12.15;100.00
18858;BME280;9558;50.178;8.370;2023-07-22T06:10:48;98185.16;;;12.24;100.00
18858;BME280;9558;50.178;8.370;2023-07-22T06:13:35;98190.66;;;12.36;100.00
18858;BME280;9558;50.178;8.370;2023-07-22T06:16:23;98188.19;;;12.49;100.00
18858;BME280;9558;50.178;8.370;2023-07-22T06:19:10;98182.34;;;12.69;100.00
18858;BME280;9558;50.178;8.370;2023-07-22T06:21:57;98187.13;;;12.93;100.00
18858;BME280;9558;50.178;8.370;2023-07-22T06:24:45;98186.28;;;13.21;100.00
18858;BME280;9558;50.178;8.370;2023-07-22T06:27:33;98183.91;;;13.55;100.00
18858;BME280;9558;50.178;8.370;2023-07-22T06:30:20;98183.03;;;13.89;100.00
18858;BME280;9558;50.178;8.370;2023-07-22T06:33:07;98187.91;;;14.32;100.00
18858;BME280;9558;50.178;8.370;2023-07-22T06:35:53;98183.13;;;14.83;100.00
18858;BME280;9558;50.178;8.370;2023-07-22T06:38:40;98190.31;;;15.08;100.00
18858;BME280;9558;50.178;8.370;2023-07-22T06:41:28;98198.66;;;15.36;100.00
18858;BME280;9558;50.178;8.370;2023-07-22T06:44:15;98194.78;;;15.59;100.00
18858;BME280;9558;50.178;8.370;2023-07-22T06:47:02;98194.09;;;15.84;100.00
18858;BME280;9558;50.178;8.370;2023-07-22T06:49:49;98201.38;;;16.39;100.00
18858;BME280;9558;50.178;8.370;2023-07-22T06:52:37;98211.81;;;16.96;100.00
18858;BME280;9558;50.178;8.370;2023-07-22T06:55:23;98203.88;;;17.47;100.00
18858;BME280;9558;50.178;8.370;2023-07-22T06:58:12;98208.38;;;18.07;100.00
18858;BME280;9558;50.178;8.370;2023-07-22T07:00:59;98206.78;;;18.48;100.00
18858;BME280;9558;50.178;8.370;2023-07-22T07:03:45;98213.88;;;18.83;100.00
18858;BME280;9558;50.178;8.370;2023-07-22T07:06:32;98208.09;;;19.05;100.00
18858;BME280;9558;50.178;8.370;2023-07-22T07:09:19;98209.69;;;19.17;100.00
18858;BME280;9558;50.178;8.370;2023-07-22T07:12:07;98206.13;;;19.36;97.36
18858;BME280;9558;50.178;8.370;2023-07-22T07:14:55;98217.09;;;19.73;96.98
18858;BME280;9558;50.178;8.370;2023-07-22T07:17:42;98208.63;;;20.12;94.88
18858;BME280;9558;50.178;8.370;2023-07-22T07:20:29;98205.09;;;20.35;94.28
18858;BME280;9558;50.178;8.370;2023-07-22T07:23:16;98212.81;;;20.59;92.21
18858;BME280;9558;50.178;8.370;2023-07-22T07:26:03;98214.28;;;20.83;90.62
18858;BME280;9558;50.178;8.370;2023-07-22T07:28:50;98216.38;;;20.81;88.28
18858;BME280;9558;50.178;8.370;2023-07-22T07:31:39;98219.72;;;20.94;86.39
18858;BME280;9558;50.178;8.370;2023-07-22T07:34:25;98222.66;;;21.36;83.36
18858;BME280;9558;50.178;8.370;2023-07-22T07:37:12;98214.44;;;21.77;81.05
18858;BME280;9558;50.178;8.370;2023-07-22T07:39:59;98219.03;;;22.36;81.68
18858;BME280;9558;50.178;8.370;2023-07-22T07:42:46;98212.81;;;22.90;77.06
18858;BME280;9558;50.178;8.370;2023-07-22T07:45:33;98214.72;;;23.48;74.71
18858;BME280;9558;50.178;8.370;2023-07-22T07:48:21;98209.88;;;24.08;72.19
18858;BME280;9558;50.178;8.370;2023-07-22T07:51:08;98221.31;;;24.60;69.68
18858;BME280;9558;50.178;8.370;2023-07-22T07:53:55;98215.72;;;24.77;68.74
18858;BME280;9558;50.178;8.370;2023-07-22T07:56:43;98209.66;;;24.66;66.40
18858;BME280;9558;50.178;8.370;2023-07-22T07:59:31;98213.34;;;24.76;67.55
18858;BME280;9558;50.178;8.370;2023-07-22T08:02:17;98206.22;;;24.45;67.97
18858;BME280;9558;50.178;8.370;2023-07-22T08:05:06;98202.75;;;24.19;66.36
18858;BME280;9558;50.178;8.370;2023-07-22T08:07:53;98203.50;;;23.89;66.66
18858;BME280;9558;50.178;8.370;2023-07-22T08:10:40;98198.88;;;23.53;66.47
18858;BME280;9558;50.178;8.370;2023-07-22T08:13:29;98208.28;;;23.28;68.19
18858;BME280;9558;50.178;8.370;2023-07-22T08:16:16;98199.63;;;23.38;67.38
18858;BME280;9558;50.178;8.370;2023-07-22T08:19:03;98199.38;;;23.40;67.75
18858;BME280;9558;50.178;8.370;2023-07-22T08:21:53;98198.16;;;23.68;66.29
18858;BME280;9558;50.178;8.370;2023-07-22T08:24:40;98203.78;;;23.97;62.67
18858;BME280;9558;50.178;8.370;2023-07-22T08:27:27;98205.13;;;24.05;65.38
18858;BME280;9558;50.178;8.370;2023-07-22T08:30:14;98201.41;;;24.58;62.21
18858;BME280;9558;50.178;8.370;2023-07-22T08:33:01;98197.88;;;25.19;60.30
18858;BME280;9558;50.178;8.370;2023-07-22T08:35:48;98202.34;;;25.44;56.97
18858;BME280;9558;50.178;8.370;2023-07-22T08:38:40;98199.94;;;25.48;56.75
18858;BME280;9558;50.178;8.370;2023-07-22T08:41:26;98208.19;;;25.26;55.04
18858;BME280;9558;50.178;8.370;2023-07-22T08:44:18;98211.44;;;25.07;54.26
18858;BME280;9558;50.178;8.370;2023-07-22T08:47:09;98203.16;;;25.29;57.55
18858;BME280;9558;50.178;8.370;2023-07-22T08:50:01;98208.06;;;25.67;56.45
18858;BME280;9558;50.178;8.370;2023-07-22T08:52:49;98197.44;;;26.17;53.59
18858;BME280;9558;50.178;8.370;2023-07-22T08:55:37;98195.88;;;26.80;53.78
18858;BME280;9558;50.178;8.370;2023-07-22T08:58:26;98185.78;;;27.25;52.99
18858;BME280;9558;50.178;8.370;2023-07-22T09:01:13;98194.72;;;27.39;48.35
18858;BME280;9558;50.178;8.370;2023-07-22T09:04:00;98193.69;;;27.35;46.25
18858;BME280;9558;50.178;8.370;2023-07-22T09:06:47;98183.41;;;27.48;50.00
18858;BME280;9558;50.178;8.370;2023-07-22T09:09:34;98188.69;;;27.29;49.53
18858;BME280;9558;50.178;8.370;2023-07-22T09:12:24;98203.41;;;26.97;48.04
18858;BME280;9558;50.178;8.370;2023-07-22T09:15:12;98191.25;;;26.61;49.15
18858;BME280;9558;50.178;8.370;2023-07-22T09:17:59;98189.59;;;26.01;48.58
18858;BME280;9558;50.178;8.370;2023-07-22T09:20:46;98187.63;;;25.73;52.82
18858;BME280;9558;50.178;8.370;2023-07-22T09:23:33;98193.63;;;25.39;53.04
18858;BME280;9558;50.178;8.370;2023-07-22T09:26:20;98188.94;;;25.10;53.52
18858;BME280;9558;50.178;8.370;2023-07-22T09:29:08;98190.03;;;24.98;54.72
18858;BME280;9558;50.178;8.370;2023-07-22T09:31:55;98180.56;;;24.66;51.24
18858;BME280;9558;50.178;8.370;2023-07-22T09:34:54;98195.59;;;24.14;54.48
18858;BME280;9558;50.178;8.370;2023-07-22T09:37:41;98187.63;;;23.84;53.55
18858;BME280;9558;50.178;8.370;2023-07-22T09:40:28;98185.16;;;23.51;58.85
18858;BME280;9558;50.178;8.370;2023-07-22T09:43:15;98187.16;;;23.28;58.08
18858;BME280;9558;50.178;8.370;2023-07-22T09:46:07;98180.94;;;23.02;59.90
18858;BME280;9558;50.178;8.370;2023-07-22T09:48:55;98179.41;;;22.64;59.68
18858;BME280;9558;50.178;8.370;2023-07-22T09:51:42;98176.31;;;22.39;60.93
18858;BME280;9558;50.178;8.370;2023-07-22T09:54:29;98175.25;;;22.08;58.91
18858;BME280;9558;50.178;8.370;2023-07-22T09:57:16;98169.84;;;21.98;62.41
18858;BME280;9558;50.178;8.370;2023-07-22T10:00:04;98169.13;;;21.75;62.97
18858;BME280;9558;50.178;8.370;2023-07-22T10:02:56;98170.31;;;21.62;61.30
18858;BME280;9558;50.178;8.370;2023-07-22T10:05:45;98168.47;;;21.63;62.35
18858;BME280;9558;50.178;8.370;2023-07-22T10:08:34;98159.06;;;21.72;60.60
18858;BME280;9558;50.178;8.370;2023-07-22T10:11:22;98156.50;;;21.77;63.11
18858;BME280;9558;50.178;8.370;2023-07-22T10:14:10;98156.75;;;21.75;61.66
18858;BME280;9558;50.178;8.370;2023-07-22T10:16:59;98160.66;;;21.73;62.33
18858;BME280;9558;50.178;8.370;2023-07-22T10:19:47;98161.50;;;21.73;65.64
18858;BME280;9558;50.178;8.370;2023-07-22T10:22:37;98147.56;;;21.78;61.07
18858;BME280;9558;50.178;8.370;2023-07-22T10:25:24;98146.97;;;22.03;59.66
18858;BME280;9558;50.178;8.370;2023-07-22T10:28:10;98148.25;;;22.28;59.80
18858;BME280;9558;50.178;8.370;2023-07-22T10:30:59;98135.53;;;22.52;55.89
18858;BME280;9558;50.178;8.370;2023-07-22T10:33:46;98142.06;;;22.82;59.18
18858;BME280;9558;50.178;8.370;2023-07-22T10:36:35;98129.31;;;23.17;57.90
18858;BME280;9558;50.178;8.370;2023-07-22T10:39:26;98124.34;;;23.36;57.22
18858;BME280;9558;50.178;8.370;2023-07-22T10:42:24;98139.22;;;23.68;56.97
18858;BME280;9558;50.178;8.370;2023-07-22T10:45:23;98130.81;;;23.91;52.55
18858;BME280;9558;50.178;8.370;2023-07-22T10:48:12;98119.97;;;23.88;52.68
18858;BME280;9558;50.178;8.370;2023-07-22T10:51:05;98124.22;;;23.94;52.22
18858;BME280;9558;50.178;8.370;2023-07-22T10:53:55;98124.50;;;24.08;54.47
18858;BME280;9558;50.178;8.370;2023-07-22T10:56:42;98133.22;;;24.03;51.91
18858;BME280;9558;50.178;8.370;2023-07-22T10:59:32;98120.53;;;24.00;51.50
18858;BME280;9558;50.178;8.370;2023-07-22T11:02:23;98142.97;;;23.87;51.99
18858;BME280;9558;50.178;8.370;2023-07-22T11:05:11;98140.28;;;23.77;50.35
18858;BME280;9558;50.178;8.370;2023-07-22T11:08:03;98136.03;;;23.60;49.36
18858;BME280;9558;50.178;8.370;2023-07-22T11:10:55;98128.03;;;23.35;52.62
18858;BME280;9558;50.178;8.370;2023-07-22T11:13:42;98128.56;;;23.32;53.40
18858;BME280;9558;50.178;8.370;2023-07-22T11:16:29;98123.50;;;23.25;53.16
18858;BME280;9558;50.178;8.370;2023-07-22T11:19:16;98125.63;;;23.23;54.17
18858;BME280;9558;50.178;8.370;2023-07-22T11:22:04;98132.50;;;23.29;54.04
18858;BME280;9558;50.178;8.370;2023-07-22T11:24:52;98130.16;;;23.38;54.72
18858;BME280;9558;50.178;8.370;2023-07-22T11:27:41;98125.66;;;23.33;53.23
18858;BME280;9558;50.178;8.370;2023-07-22T11:30:27;98122.50;;;23.36;53.64
18858;BME280;9558;50.178;8.370;2023-07-22T11:33:14;98124.09;;;23.37;53.90
18858;BME280;9558;50.178;8.370;2023-07-22T11:36:02;98112.22;;;23.40;52.95
18858;BME280;9558;50.178;8.370;2023-07-22T11:38:49;98113.00;;;23.35;51.92
18858;BME280;9558;50.178;8.370;2023-07-22T11:41:36;98108.53;;;23.41;52.65
18858;BME280;9558;50.178;8.370;2023-07-22T11:44:27;98101.38;;;23.41;49.69
18858;BME280;9558;50.178;8.370;2023-07-22T11:47:14;98085.31;;;23.58;50.92
18858;BME280;9558;50.178;8.370;2023-07-22T11:50:01;98091.91;;;23.51;51.80
18858;BME280;9558;50.178;8.370;2023-07-22T11:52:49;98090.06;;;23.51;52.17
18858;BME280;9558;50.178;8.370;2023-07-22T11:55:36;98085.31;;;23.58;50.06
18858;BME280;9558;50.178;8.370;2023-07-22T11:58:24;98088.50;;;23.71;52.04
18858;BME280;9558;50.178;8.370;2023-07-22T12:01:13;98084.28;;;23.85;51.92
18858;BME280;9558;50.178;8.370;2023-07-22T12:04:01;98090.41;;;23.91;51.88
18858;BME280;9558;50.178;8.370;2023-07-22T12:06:48;98077.97;;;23.91;51.59
18858;BME280;9558;50.178;8.370;2023-07-22T12:09:34;98086.94;;;23.90;51.66
18858;BME280;9558;50.178;8.370;2023-07-22T12:12:31;98083.47;;;23.85;49.48
18858;BME280;9558;50.178;8.370;2023-07-22T12:15:19;98082.19;;;23.87;51.75
18858;BME280;9558;50.178;8.370;2023-07-22T12:18:08;98077.41;;;23.84;50.61
18858;BME280;9558;50.178;8.370;2023-07-22T12:20:57;98063.41;;;23.78;50.30
18858;BME280;9558;50.178;8.370;2023-07-22T12:23:45;98057.84;;;23.85;50.26
18858;BME280;9558;50.178;8.370;2023-07-22T12:26:32;98073.22;;;23.88;50.13
18858;BME280;9558;50.178;8.370;2023-07-22T12:29:19;98057.34;;;23.93;49.19
18858;BME280;9558;50.178;8.370;2023-07-22T12:32:08;98071.34;;;24.04;48.54
18858;BME280;9558;50.178;8.370;2023-07-22T12:34:56;98071.09;;;24.06;47.55
18858;BME280;9558;50.178;8.370;2023-07-22T12:37:43;98053.34;;;24.06;45.39
18858;BME280;9558;50.178;8.370;2023-07-22T12:40:30;98048.34;;;24.05;46.90
18858;BME280;9558;50.178;8.370;2023-07-22T12:43:16;98046.22;;;24.17;48.12
18858;BME280;9558;50.178;8.370;2023-07-22T12:46:04;98056.28;;;24.15;47.08
18858;BME280;9558;50.178;8.370;2023-07-22T12:48:51;98054.44;;;24.05;46.68
18858;BME280;9558;50.178;8.370;2023-07-22T12:51:39;98057.31;;;24.09;47.51
18858;BME280;9558;50.178;8.370;2023-07-22T12:54:26;98053.13;;;24.03;46.90
18858;BME280;9558;50.178;8.370;2023-07-22T12:57:12;98056.28;;;23.94;45.78
18858;BME280;9558;50.178;8.370;2023-07-22T12:59:59;98052.84;;;23.99;47.65
18858;BME280;9558;50.178;8.370;2023-07-22T13:02:46;98042.03;;;23.95;47.74
18858;BME280;9558;50.178;8.370;2023-07-22T13:05:33;98032.50;;;23.94;48.34
18858;BME280;9558;50.178;8.370;2023-07-22T13:08:21;98038.84;;;24.04;48.46
18858;BME280;9558;50.178;8.370;2023-07-22T13:11:08;98036.47;;;24.02;47.53
18858;BME280;9558;50.178;8.370;2023-07-22T13:13:55;98032.47;;;24.05;46.90
18858;BME280;9558;50.178;8.370;2023-07-22T13:16:41;98035.13;;;24.05;47.61
18858;BME280;9558;50.178;8.370;2023-07-22T13:19:29;98045.19;;;23.97;44.39
18858;BME280;9558;50.178;8.370;2023-07-22T13:22:16;98034.88;;;24.01;46.19
18858;BME280;9558;50.178;8.370;2023-07-22T13:25:05;98036.97;;;23.99;46.24
18858;BME280;9558;50.178;8.370;2023-07-22T13:27:52;98033.56;;;24.04;46.54
18858;BME280;9558;50.178;8.370;2023-07-22T13:30:38;98023.00;;;24.04;46.23
18858;BME280;9558;50.178;8.370;2023-07-22T13:33:25;98016.63;;;24.10;46.74
18858;BME280;9558;50.178;8.370;2023-07-22T13:36:13;98025.06;;;24.12;45.75
18858;BME280;9558;50.178;8.370;2023-07-22T13:38:59;98012.63;;;24.18;46.25
18858;BME280;9558;50.178;8.370;2023-07-22T13:41:47;98020.84;;;24.16;46.31
18858;BME280;9558;50.178;8.370;2023-07-22T13:44:35;98030.34;;;24.17;46.02
18858;BME280;9558;50.178;8.370;2023-07-22T13:47:22;98022.69;;;24.21;45.74
18858;BME280;9558;50.178;8.370;2023-07-22T13:50:09;98011.81;;;24.27;45.10
18858;BME280;9558;50.178;8.370;2023-07-22T13:52:56;98007.56;;;24.37;45.32
18858;BME280;9558;50.178;8.370;2023-07-22T13:55:43;98008.03;;;24.49;45.23
18858;BME280;9558;50.178;8.370;2023-07-22T13:58:31;98002.22;;;24.52;45.48
18858;BME280;9558;50.178;8.370;2023-07-22T14:01:18;98001.41;;;24.62;46.19
18858;BME280;9558;50.178;8.370;2023-07-22T14:04:04;97996.34;;;24.71;46.21
18858;BME280;9558;50.178;8.370;2023-07-22T14:06:51;97996.34;;;24.76;44.76
18858;BME280;9558;50.178;8.370;2023-07-22T14:09:38;97997.72;;;24.63;43.31
18858;BME280;9558;50.178;8.370;2023-07-22T14:12:25;97986.34;;;24.52;43.80
18858;BME280;9558;50.178;8.370;2023-07-22T14:15:13;97992.22;;;24.39;43.61
18858;BME280;9558;50.178;8.370;2023-07-22T14:18:00;97984.88;;;24.20;42.76
18858;BME280;9558;50.178;8.370;2023-07-22T14:20:47;97995.97;;;24.12;43.51
18858;BME280;9558;50.178;8.370;2023-07-22T14:23:33;97994.69;;;24.09;44.20
18858;BME280;9558;50.178;8.370;2023-07-22T14:26:20;97994.41;;;24.11;44.92
18858;BME280;9558;50.178;8.370;2023-07-22T14:29:07;97992.81;;;24.20;45.08
18858;BME280;9558;50.178;8.370;2023-07-22T14:31:56;97987.50;;;24.25;44.85
18858;BME280;9558;50.178;8.370;2023-07-22T14:34:43;97995.44;;;24.25;44.78
18858;BME280;9558;50.178;8.370;2023-07-22T14:37:30;97985.91;;;24.24;44.04
18858;BME280;9558;50.178;8.370;2023-07-22T14:40:17;97986.44;;;24.26;44.40
18858;BME280;9558;50.178;8.370;2023-07-22T14:43:04;97987.50;;;24.25;43.78
18858;BME280;9558;50.178;8.370;2023-07-22T14:45:52;97988.84;;;24.23;42.86
18858;BME280;9558;50.178;8.370;2023-07-22T14:48:40;97980.09;;;24.27;43.85
18858;BME280;9558;50.178;8.370;2023-07-22T14:51:28;97966.84;;;24.32;43.76
18858;BME280;9558;50.178;8.370;2023-07-22T14:54:14;97967.91;;;24.31;44.21
18858;BME280;9558;50.178;8.370;2023-07-22T14:57:01;97978.00;;;24.19;42.85